< < Back
Terminal Aerodrome Forecast


Current Version              Previous Versions:   1  2  3  4  5  6  7  8  9  

Terminal Aerodrome Forecast

619
FTUS42 KFFC 040521
TAFFTY
TAF
KFTY 040521Z 0406/0506 00000KT P6SM SKC
     FM041600 19004KT P6SM FEW050
     FM041800 15007KT P6SM FEW050
     FM050200 00000KT P6SM SKC=

Latest METAR

635
SAUS70 KWBC 042100 RRG
MTRFTY
METAR KFTY 042053Z 15007KT 10SM FEW095 26/09 A3024 RMK AO2 SLP235
T02610089 58017


USA.gov is the U.S. government's official web portal to all federal, state and local government web resources and services.